createdAt,value
2023-03-25T00:00:28.821Z,2.90
2023-03-25T00:03:11.494Z,3.85
2023-03-25T00:05:54.295Z,4.03
2023-03-25T00:08:38.588Z,4.25
2023-03-25T00:11:21.383Z,2.30
2023-03-25T00:14:04.459Z,3.97
2023-03-25T00:16:48.550Z,3.53
2023-03-25T00:19:31.369Z,2.95
2023-03-25T00:22:14.000Z,3.72
2023-03-25T00:24:58.243Z,4.03
2023-03-25T00:27:40.815Z,3.42
2023-03-25T00:30:23.448Z,3.67
2023-03-25T00:33:06.174Z,2.28
2023-03-25T00:35:52.750Z,2.80
2023-03-25T00:38:37.773Z,3.50
2023-03-25T00:41:25.361Z,4.45
2023-03-25T00:44:08.091Z,2.40
2023-03-25T00:46:51.130Z,4.88
2023-03-25T00:49:33.730Z,2.97
2023-03-25T00:52:16.816Z,4.07
2023-03-25T00:54:59.425Z,3.22
2023-03-25T00:57:44.077Z,4.55
2023-03-25T01:00:27.168Z,4.13
2023-03-25T01:03:09.881Z,4.93
2023-03-25T01:05:54.683Z,3.88
2023-03-25T01:08:37.298Z,3.13
2023-03-25T01:11:20.876Z,4.78
2023-03-25T01:14:07.695Z,5.60
2023-03-25T01:16:50.279Z,3.63
2023-03-25T01:19:32.893Z,4.43
2023-03-25T01:22:15.498Z,7.72
2023-03-25T01:24:58.124Z,5.15
2023-03-25T01:27:40.803Z,5.90
2023-03-25T01:30:24.732Z,4.15
2023-03-25T01:33:07.666Z,3.72
2023-03-25T01:35:50.421Z,3.92
2023-03-25T01:38:33.922Z,2.97
2023-03-25T01:41:16.689Z,6.28
2023-03-25T01:44:03.151Z,3.60
2023-03-25T01:46:49.276Z,4.93
2023-03-25T01:49:34.113Z,8.07
2023-03-25T01:52:19.782Z,5.03
2023-03-25T01:55:02.443Z,5.80
2023-03-25T01:57:46.057Z,5.22
2023-03-25T02:00:28.951Z,4.03
2023-03-25T02:03:13.733Z,4.30
2023-03-25T02:05:57.935Z,4.55
2023-03-25T02:08:41.631Z,2.67
2023-03-25T02:11:28.955Z,3.88
2023-03-25T02:14:13.599Z,4.10
2023-03-25T02:17:02.040Z,5.03
2023-03-25T02:20:08.999Z,5.45
2023-03-25T02:23:01.823Z,5.30
2023-03-25T02:26:10.845Z,6.43
2023-03-25T02:28:56.124Z,4.43
2023-03-25T02:31:50.752Z,4.13
2023-03-25T02:34:37.967Z,4.50
2023-03-25T02:37:35.307Z,4.18
2023-03-25T02:40:21.886Z,5.10
2023-03-25T02:43:06.531Z,4.60
2023-03-25T02:45:52.622Z,4.03
2023-03-25T02:48:39.636Z,5.72
2023-03-25T02:51:25.238Z,8.82
2023-03-25T02:54:11.217Z,6.82
2023-03-25T02:56:57.620Z,5.57
2023-03-25T02:59:41.132Z,7.88
2023-03-25T03:02:26.230Z,6.38
2023-03-25T03:05:21.893Z,3.55
2023-03-25T03:08:14.658Z,6.07
2023-03-25T03:11:02.123Z,9.02
2023-03-25T03:14:01.402Z,5.03
2023-03-25T03:16:49.949Z,3.13
2023-03-25T03:19:38.117Z,5.53
2023-03-25T03:22:40.611Z,3.97
2023-03-25T03:25:27.420Z,3.38
2023-03-25T03:28:11.361Z,3.35
2023-03-25T03:30:59.505Z,5.05
2023-03-25T03:33:50.653Z,3.88
2023-03-25T03:36:36.313Z,4.93
2023-03-25T03:39:21.197Z,4.32
2023-03-25T03:42:05.593Z,4.97
2023-03-25T03:44:51.097Z,4.03
2023-03-25T03:47:37.849Z,5.50
2023-03-25T03:50:22.063Z,6.05
2023-03-25T03:53:07.534Z,4.70
2023-03-25T03:55:53.194Z,3.85
2023-03-25T03:58:37.969Z,3.53
2023-03-25T04:01:27.874Z,2.83
2023-03-25T04:04:12.283Z,4.20
2023-03-25T04:06:58.644Z,6.22
2023-03-25T04:09:46.586Z,3.20
2023-03-25T04:12:30.190Z,5.40
2023-03-25T04:15:13.530Z,3.78
2023-03-25T04:17:56.157Z,4.50
2023-03-25T04:20:44.877Z,5.47
2023-03-25T04:23:29.894Z,4.57
2023-03-25T04:26:13.193Z,3.70
2023-03-25T04:28:55.852Z,3.40
2023-03-25T04:31:46.299Z,2.47
2023-03-25T04:34:29.817Z,2.63
2023-03-25T04:37:13.981Z,2.53
2023-03-25T04:40:00.086Z,2.70
2023-03-25T04:42:43.954Z,3.97
2023-03-25T04:45:28.828Z,6.03
2023-03-25T04:48:19.930Z,3.55
2023-03-25T04:51:03.413Z,4.25
2023-03-25T04:53:47.405Z,2.95
2023-03-25T04:56:30.244Z,2.50
2023-03-25T04:59:12.924Z,2.67
2023-03-25T05:01:55.596Z,2.08
2023-03-25T05:04:38.238Z,3.70
2023-03-25T05:07:20.880Z,2.35
2023-03-25T05:10:04.996Z,2.33
2023-03-25T05:12:47.788Z,2.42
2023-03-25T05:15:32.529Z,4.20
2023-03-25T05:18:16.631Z,2.60
2023-03-25T05:21:00.882Z,2.17
2023-03-25T05:23:43.523Z,2.47
2023-03-25T05:26:34.207Z,2.25
2023-03-25T05:29:17.215Z,2.45
2023-03-25T05:31:59.912Z,3.40
2023-03-25T05:34:42.807Z,2.42
2023-03-25T05:37:25.537Z,1.73
2023-03-25T05:40:15.020Z,2.10
2023-03-25T05:42:59.530Z,3.63
2023-03-25T05:45:42.191Z,2.00
2023-03-25T05:48:24.845Z,5.53
2023-03-25T05:51:08.115Z,1.98
2023-03-25T05:53:50.798Z,2.40
2023-03-25T05:56:33.468Z,3.85
2023-03-25T05:59:17.995Z,2.70
2023-03-25T06:02:01.058Z,1.83
2023-03-25T06:04:44.248Z,3.33
2023-03-25T06:07:26.845Z,4.97
2023-03-25T06:10:09.960Z,5.57
2023-03-25T06:12:54.081Z,2.78
2023-03-25T06:15:40.669Z,5.10
2023-03-25T06:18:25.649Z,3.42
2023-03-25T06:21:08.669Z,3.65
2023-03-25T06:23:51.547Z,4.07
2023-03-25T06:26:34.170Z,2.90
2023-03-25T06:29:17.461Z,4.43
2023-03-25T06:32:01.380Z,4.00
2023-03-25T06:34:44.758Z,3.58
2023-03-25T06:37:28.292Z,5.22
2023-03-25T06:40:12.478Z,2.88
2023-03-25T06:42:55.177Z,3.47
2023-03-25T06:46:01.033Z,2.47
2023-03-25T06:49:20.422Z,5.55
2023-03-25T06:52:03.296Z,4.07
2023-03-25T06:54:45.921Z,3.10
2023-03-25T06:57:28.538Z,4.80
2023-03-25T07:00:12.729Z,3.47
2023-03-25T07:02:55.521Z,4.57
2023-03-25T07:05:41.824Z,4.15
2023-03-25T07:08:24.626Z,3.63
2023-03-25T07:11:08.295Z,3.45
2023-03-25T07:13:53.806Z,2.47
2023-03-25T07:16:36.470Z,4.63
2023-03-25T07:19:19.139Z,6.55
2023-03-25T07:22:03.161Z,5.80
2023-03-25T07:24:48.643Z,4.72
2023-03-25T07:27:31.532Z,4.93
2023-03-25T07:30:20.130Z,4.28
2023-03-25T07:33:02.822Z,4.65
2023-03-25T07:35:45.859Z,3.33
2023-03-25T07:38:29.870Z,5.47
2023-03-25T07:41:15.570Z,4.63
2023-03-25T07:44:20.389Z,5.82
2023-03-25T07:47:04.531Z,3.65
2023-03-25T07:49:47.744Z,4.47
2023-03-25T07:52:30.383Z,6.25
2023-03-25T07:55:14.733Z,4.05
2023-03-25T07:57:58.566Z,6.63
2023-03-25T08:00:41.181Z,3.72
2023-03-25T08:03:24.055Z,3.03
2023-03-25T08:06:06.982Z,3.40
2023-03-25T08:08:49.566Z,4.75
2023-03-25T08:11:34.409Z,5.43
2023-03-25T08:14:17.329Z,3.40
2023-03-25T08:17:00.001Z,3.83
2023-03-25T08:19:42.680Z,3.63
2023-03-25T08:22:25.476Z,3.72
2023-03-25T08:25:08.744Z,3.50
2023-03-25T08:27:52.709Z,5.15
2023-03-25T08:30:38.769Z,4.85
2023-03-25T08:33:21.847Z,3.65
2023-03-25T08:36:04.872Z,4.30
2023-03-25T08:38:47.557Z,3.97
2023-03-25T08:41:30.176Z,3.58
2023-03-25T08:44:14.183Z,3.95
2023-03-25T08:46:56.785Z,3.47
2023-03-25T08:49:39.428Z,3.38
2023-03-25T08:52:22.059Z,4.35
2023-03-25T08:55:05.070Z,4.75
2023-03-25T08:57:47.762Z,4.75
2023-03-25T09:00:32.328Z,4.43
2023-03-25T09:03:15.024Z,2.88
2023-03-25T09:05:57.744Z,3.10
2023-03-25T09:08:40.642Z,2.20
2023-03-25T09:11:34.046Z,4.15
2023-03-25T09:14:19.441Z,6.30
2023-03-25T09:17:03.497Z,4.07
2023-03-25T09:19:46.511Z,5.45
2023-03-25T09:22:29.180Z,5.55
2023-03-25T09:25:12.134Z,2.97
2023-03-25T09:27:54.881Z,1.65
2023-03-25T09:30:37.525Z,1.60
2023-03-25T09:33:21.519Z,0.60
2023-03-25T09:36:04.320Z,2.47
2023-03-25T09:38:46.944Z,1.27
2023-03-25T09:41:41.598Z,1.58
2023-03-25T09:44:27.752Z,5.05
2023-03-25T09:47:14.981Z,1.27
2023-03-25T09:50:01.832Z,1.90
2023-03-25T09:52:50.794Z,3.10
2023-03-25T09:55:35.434Z,2.42
2023-03-25T09:58:29.557Z,1.63
2023-03-25T10:01:19.239Z,1.30
2023-03-25T10:04:10.451Z,3.85
2023-03-25T10:06:58.849Z,1.45
2023-03-25T10:09:46.392Z,0.60
2023-03-25T10:12:34.254Z,2.08
2023-03-25T10:15:27.574Z,2.10
2023-03-25T10:18:19.227Z,3.00
2023-03-25T10:21:04.665Z,2.28
2023-03-25T10:23:52.032Z,2.72
2023-03-25T10:26:38.217Z,2.17
2023-03-25T10:29:22.840Z,2.83
2023-03-25T10:32:08.755Z,3.13
2023-03-25T10:34:52.855Z,2.05
2023-03-25T10:37:39.862Z,2.78
2023-03-25T10:40:27.202Z,1.88
2023-03-25T10:43:15.128Z,3.33
2023-03-25T10:45:59.236Z,4.38
2023-03-25T10:48:41.936Z,3.53
2023-03-25T10:51:27.414Z,3.90
2023-03-25T10:54:11.357Z,2.17
2023-03-25T10:56:56.725Z,2.75
2023-03-25T10:59:43.383Z,4.05
2023-03-25T11:02:27.924Z,4.45
2023-03-25T11:05:11.570Z,2.83
2023-03-25T11:07:55.261Z,3.05
2023-03-25T11:10:38.774Z,4.28
2023-03-25T11:13:24.563Z,3.38
2023-03-25T11:16:08.244Z,3.22
2023-03-25T11:18:52.673Z,5.50
2023-03-25T11:21:36.486Z,3.55
2023-03-25T11:24:19.918Z,3.25
2023-03-25T11:27:04.071Z,2.38
2023-03-25T11:29:53.239Z,2.95
2023-03-25T11:32:36.860Z,2.03
2023-03-25T11:35:23.170Z,1.25
2023-03-25T11:38:15.132Z,1.85
2023-03-25T11:40:58.624Z,4.70
2023-03-25T11:43:41.888Z,0.82
2023-03-25T11:46:26.288Z,3.00
2023-03-25T11:49:10.160Z,1.05
2023-03-25T11:51:58.218Z,0.95
2023-03-25T11:54:41.569Z,1.42
2023-03-25T11:57:25.542Z,1.42
2023-03-25T12:00:18.291Z,1.40
2023-03-25T12:03:03.459Z,1.02
2023-03-25T12:05:57.558Z,1.13
2023-03-25T12:08:44.408Z,2.20
2023-03-25T12:11:29.578Z,2.65
2023-03-25T12:14:17.759Z,0.63
2023-03-25T12:17:05.327Z,1.02
2023-03-25T12:19:54.458Z,3.47
2023-03-25T12:22:43.364Z,2.40
2023-03-25T12:25:28.137Z,2.28
2023-03-25T12:28:23.819Z,0.80
2023-03-25T12:31:11.233Z,1.63
2023-03-25T12:34:00.139Z,1.30
2023-03-25T12:36:48.897Z,1.20
2023-03-25T12:39:44.005Z,3.72
2023-03-25T12:42:33.411Z,1.70
2023-03-25T12:45:34.282Z,3.22
2023-03-25T12:48:24.015Z,2.22
2023-03-25T12:51:14.372Z,4.35
2023-03-25T12:54:04.071Z,2.10
2023-03-25T12:56:50.514Z,2.70
2023-03-25T12:59:48.330Z,4.03
2023-03-25T13:02:37.791Z,3.42
2023-03-25T13:05:23.027Z,3.80
2023-03-25T13:08:09.225Z,3.38
2023-03-25T13:10:57.565Z,3.10
2023-03-25T13:13:41.125Z,4.05
2023-03-25T13:16:25.862Z,1.95
2023-03-25T13:19:11.401Z,1.58
2023-03-25T13:21:57.361Z,1.15
2023-03-25T13:24:43.401Z,3.38
2023-03-25T13:27:32.187Z,2.00
2023-03-25T13:30:17.664Z,2.30
2023-03-25T13:33:04.671Z,2.20
2023-03-25T13:35:48.956Z,1.52
2023-03-25T13:38:33.199Z,2.35
2023-03-25T13:41:17.951Z,2.63
2023-03-25T13:44:05.276Z,2.50
2023-03-25T13:46:49.510Z,1.48
2023-03-25T13:49:34.981Z,3.75
2023-03-25T13:52:18.517Z,1.00
2023-03-25T13:55:04.904Z,2.03
2023-03-25T13:58:00.345Z,0.85
2023-03-25T14:01:01.849Z,1.92
2023-03-25T14:04:09.569Z,1.13
2023-03-25T14:07:07.067Z,1.48
2023-03-25T14:10:10.522Z,1.40
2023-03-25T14:12:54.450Z,2.85
2023-03-25T14:15:38.988Z,0.60
2023-03-25T14:18:21.988Z,1.63
2023-03-25T14:21:16.761Z,3.08
2023-03-25T14:24:06.854Z,1.73
2023-03-25T14:26:50.470Z,0.98
2023-03-25T14:29:36.093Z,2.95
2023-03-25T14:32:33.731Z,1.88
2023-03-25T14:35:47.172Z,2.10
2023-03-25T14:38:47.718Z,1.58
2023-03-25T14:41:57.458Z,1.13
2023-03-25T14:44:42.093Z,2.05
2023-03-25T14:47:30.300Z,0.98
2023-03-25T14:50:32.034Z,2.50
2023-03-25T14:53:14.794Z,1.10
2023-03-25T14:55:57.572Z,0.73
2023-03-25T14:58:41.740Z,1.67
2023-03-25T15:01:30.125Z,1.67
2023-03-25T15:04:15.274Z,1.55
2023-03-25T15:06:58.568Z,1.38
2023-03-25T15:09:50.467Z,2.25
2023-03-25T15:12:33.226Z,1.33
2023-03-25T15:15:28.414Z,2.47
2023-03-25T15:18:11.464Z,3.17
2023-03-25T15:20:54.192Z,2.38
2023-03-25T15:23:41.275Z,1.92
2023-03-25T15:26:28.088Z,2.92
2023-03-25T15:29:17.876Z,1.33
2023-03-25T15:32:07.965Z,1.63
2023-03-25T15:35:00.191Z,2.50
2023-03-25T15:38:00.384Z,2.67
2023-03-25T15:40:50.695Z,2.97
2023-03-25T15:43:57.810Z,3.58
2023-03-25T15:47:01.447Z,3.90
2023-03-25T15:49:52.608Z,3.33
2023-03-25T15:52:44.196Z,3.67
2023-03-25T15:55:29.608Z,1.83
2023-03-25T15:58:14.137Z,5.35
2023-03-25T16:00:58.554Z,2.75
2023-03-25T16:03:42.617Z,2.75
2023-03-25T16:06:27.981Z,2.40
2023-03-25T16:09:15.945Z,1.75
2023-03-25T16:12:01.921Z,2.47
2023-03-25T16:14:45.465Z,5.28
2023-03-25T16:17:32.394Z,2.67
2023-03-25T16:20:18.162Z,1.35
2023-03-25T16:23:03.215Z,2.38
2023-03-25T16:25:48.833Z,3.58
2023-03-25T16:28:33.032Z,1.38
2023-03-25T16:31:28.504Z,1.80
2023-03-25T16:34:14.622Z,2.15
2023-03-25T16:36:57.274Z,2.42
2023-03-25T16:39:41.406Z,8.05
2023-03-25T16:42:27.415Z,3.55
2023-03-25T16:45:15.409Z,5.38
2023-03-25T16:47:58.277Z,1.23
2023-03-25T16:50:41.991Z,3.47
2023-03-25T16:53:24.828Z,4.40
2023-03-25T16:56:21.953Z,3.05
2023-03-25T16:59:06.261Z,2.13
2023-03-25T17:01:52.309Z,1.30
2023-03-25T17:04:41.775Z,0.73
2023-03-25T17:07:26.692Z,0.93
2023-03-25T17:10:15.814Z,0.88
2023-03-25T17:13:02.772Z,0.82
2023-03-25T17:15:49.193Z,2.97
2023-03-25T17:18:32.546Z,1.23
2023-03-25T17:21:22.286Z,1.40
2023-03-25T17:24:08.733Z,1.15
2023-03-25T17:26:55.246Z,0.80
2023-03-25T17:29:49.558Z,1.88
2023-03-25T17:32:43.444Z,1.95
2023-03-25T17:35:28.044Z,1.30
2023-03-25T17:38:14.420Z,1.52
2023-03-25T17:41:00.903Z,1.48
2023-03-25T17:43:44.725Z,2.42
2023-03-25T17:46:30.093Z,1.02
2023-03-25T17:49:15.104Z,0.93
2023-03-25T17:51:58.256Z,2.03
2023-03-25T17:54:40.950Z,1.20
2023-03-25T17:57:23.601Z,1.90
2023-03-25T18:00:10.877Z,1.42
2023-03-25T18:02:54.915Z,1.15
2023-03-25T18:05:37.773Z,1.63
2023-03-25T18:08:21.150Z,2.10
2023-03-25T18:11:03.794Z,1.40
2023-03-25T18:13:47.985Z,1.83
2023-03-25T18:16:30.705Z,1.58
2023-03-25T18:19:16.202Z,2.55
2023-03-25T18:22:06.961Z,1.50
2023-03-25T18:24:56.663Z,1.15
2023-03-25T18:27:43.661Z,1.85
2023-03-25T18:30:28.258Z,1.70
2023-03-25T18:33:11.125Z,2.80
2023-03-25T18:35:56.336Z,1.58
2023-03-25T18:38:39.045Z,1.15
2023-03-25T18:41:21.922Z,1.65
2023-03-25T18:44:04.521Z,1.27
2023-03-25T18:46:47.426Z,2.10
2023-03-25T18:49:30.587Z,2.75
2023-03-25T18:52:14.529Z,0.98
2023-03-25T18:54:57.423Z,2.80
2023-03-25T18:57:40.170Z,2.08
2023-03-25T19:00:24.165Z,1.20
2023-03-25T19:03:07.300Z,1.75
2023-03-25T19:05:50.017Z,2.63
2023-03-25T19:08:34.519Z,1.10
2023-03-25T19:11:21.805Z,2.03
2023-03-25T19:14:04.966Z,2.33
2023-03-25T19:17:01.189Z,2.55
2023-03-25T19:19:46.611Z,2.17
2023-03-25T19:22:29.399Z,4.20
2023-03-25T19:25:13.548Z,2.88
2023-03-25T19:27:56.546Z,2.97
2023-03-25T19:30:39.251Z,2.88
2023-03-25T19:33:21.955Z,2.17
2023-03-25T19:36:04.941Z,2.75
2023-03-25T19:38:47.843Z,4.18
2023-03-25T19:41:32.103Z,5.13
2023-03-25T19:44:14.865Z,4.10
2023-03-25T19:46:57.556Z,3.95
2023-03-25T19:49:40.506Z,3.35
2023-03-25T19:52:23.158Z,4.82
2023-03-25T19:55:06.246Z,1.58
2023-03-25T19:57:51.201Z,4.32
2023-03-25T20:00:33.841Z,4.00
2023-03-25T20:03:16.527Z,2.03
2023-03-25T20:05:59.530Z,4.65
2023-03-25T20:08:42.221Z,3.58
2023-03-25T20:11:24.873Z,5.72
2023-03-25T20:14:09.298Z,4.85
2023-03-25T20:16:51.976Z,4.13
2023-03-25T20:19:34.607Z,4.82
2023-03-25T20:22:24.953Z,5.55
2023-03-25T20:25:08.722Z,4.53
2023-03-25T20:27:51.591Z,3.40
2023-03-25T20:30:36.007Z,8.38
2023-03-25T20:33:19.193Z,5.35
2023-03-25T20:36:01.968Z,5.03
2023-03-25T20:38:56.168Z,3.50
2023-03-25T20:41:40.107Z,5.43
2023-03-25T20:44:22.905Z,4.78
2023-03-25T20:47:09.390Z,6.05
2023-03-25T20:49:52.925Z,4.15
2023-03-25T20:52:35.927Z,3.75
2023-03-25T20:55:18.790Z,3.63
2023-03-25T20:58:01.632Z,5.90
2023-03-25T21:00:46.948Z,6.03
2023-03-25T21:03:31.193Z,4.15
2023-03-25T21:09:07.365Z,4.53
2023-03-25T21:11:50.368Z,5.78
2023-03-25T21:14:33.013Z,4.45
2023-03-25T21:17:15.966Z,4.75
2023-03-25T21:20:00.095Z,6.55
2023-03-25T21:22:44.245Z,5.88
2023-03-25T21:25:34.012Z,4.13
2023-03-25T21:28:18.197Z,4.32
2023-03-25T21:31:03.473Z,4.43
2023-03-25T21:33:48.792Z,6.97
2023-03-25T21:36:34.021Z,3.38
2023-03-25T21:39:16.984Z,5.57
2023-03-25T21:41:59.602Z,6.15
2023-03-25T21:44:52.848Z,6.85
2023-03-25T21:47:35.939Z,5.32
2023-03-25T21:50:18.978Z,5.50
2023-03-25T21:53:05.641Z,4.30
2023-03-25T21:55:50.641Z,7.45
2023-03-25T21:58:36.168Z,9.80
2023-03-25T22:01:23.332Z,5.38
2023-03-25T22:04:06.212Z,5.90
2023-03-25T22:06:48.873Z,5.13
2023-03-25T22:09:32.884Z,5.55
2023-03-25T22:12:15.596Z,4.57
2023-03-25T22:14:58.288Z,4.72
2023-03-25T22:17:41.004Z,7.72
2023-03-25T22:20:23.647Z,6.55
2023-03-25T22:23:06.751Z,6.43
2023-03-25T22:25:50.770Z,8.70
2023-03-25T22:28:33.346Z,7.57
2023-03-25T22:31:17.098Z,6.55
2023-03-25T22:34:02.994Z,7.32
2023-03-25T22:36:49.846Z,7.05
2023-03-25T22:39:33.247Z,6.50
2023-03-25T22:42:17.287Z,7.85
2023-03-25T22:44:59.951Z,4.30
2023-03-25T22:47:42.847Z,7.80
2023-03-25T22:50:25.568Z,9.07
2023-03-25T22:53:08.178Z,4.95
2023-03-25T22:55:53.424Z,8.23
2023-03-25T22:58:38.135Z,10.45
2023-03-25T23:01:21.917Z,5.50
2023-03-25T23:04:04.686Z,7.35
2023-03-25T23:07:00.589Z,3.55
2023-03-25T23:09:49.750Z,9.82
2023-03-25T23:12:32.366Z,6.05
2023-03-25T23:15:16.338Z,2.67
2023-03-25T23:17:58.978Z,5.40
2023-03-25T23:20:42.020Z,3.45
2023-03-25T23:23:25.344Z,5.60
2023-03-25T23:26:09.010Z,4.05
2023-03-25T23:28:51.693Z,7.68
2023-03-25T23:31:36.109Z,7.32
2023-03-25T23:34:18.804Z,5.22
2023-03-25T23:37:01.586Z,10.63
2023-03-25T23:39:46.272Z,3.92
2023-03-25T23:42:35.602Z,5.10
2023-03-25T23:45:18.805Z,4.10
2023-03-25T23:48:03.045Z,8.63
2023-03-25T23:50:47.036Z,7.43
2023-03-25T23:53:29.711Z,6.43
2023-03-25T23:56:12.853Z,10.57
2023-03-25T23:58:55.905Z,7.20
